Terminal Aerodrome Forecast
Issued by NWS

Home | Current Version | Previous Version | Text Only | Print | Product List | Glossary On
Versions: 1 2 3 4 5 6 7 8 9 10 11 12 13 14 15 16 17 18 19 20
000
FTUS46 KPDT 200500
TAFALW
TAF
KALW 200533Z 2006/2106 VRB06KT P6SM SKC
     FM200800 15007KT P6SM SCT250
      TEMPO 2010/2014 3SM BR BKN001
     FM201800 20012KT P6SM BKN100
     FM202200 30015G25KT P6SM VCSH BKN050 BKN100
      TEMPO 2022/2102 -RA BKN050 BKN100=

USA.gov is the U.S. government's official web portal to all federal, state and local government web resources and services.